sensor_id;sensor_type;location;lat;lon;timestamp;pressure;altitude;pressure_sealevel;temperature;humidity
62725;BME280;49026;52.600;4.694;2022-08-04T00:00:02;101326.09;;;17.85;64.59
62725;BME280;49026;52.600;4.694;2022-08-04T00:10:39;101322.78;;;17.82;64.55
62725;BME280;49026;52.600;4.694;2022-08-04T00:13:07;101324.50;;;17.83;64.65
62725;BME280;49026;52.600;4.694;2022-08-04T00:15:34;101332.47;;;17.83;64.61
62725;BME280;49026;52.600;4.694;2022-08-04T00:18:03;101322.78;;;17.82;64.87
62725;BME280;49026;52.600;4.694;2022-08-04T00:20:33;101321.06;;;17.81;64.86
62725;BME280;49026;52.600;4.694;2022-08-04T00:23:04;101319.38;;;17.80;64.96
62725;BME280;49026;52.600;4.694;2022-08-04T00:25:30;101320.22;;;17.80;65.02
62725;BME280;49026;52.600;4.694;2022-08-04T00:27:55;101315.97;;;17.77;65.15
62725;BME280;49026;52.600;4.694;2022-08-04T00:30:21;101316.91;;;17.76;65.14
62725;BME280;49026;52.600;4.694;2022-08-04T00:32:46;101307.97;;;17.77;65.01
62725;BME280;49026;52.600;4.694;2022-08-04T00:35:13;101314.16;;;17.78;65.15
62725;BME280;49026;52.600;4.694;2022-08-04T00:37:39;101312.34;;;17.78;65.50
62725;BME280;49026;52.600;4.694;2022-08-04T00:45:43;101309.28;;;17.85;65.26
62725;BME280;49026;52.600;4.694;2022-08-04T00:48:28;101301.50;;;17.82;65.75
62725;BME280;49026;52.600;4.694;2022-08-04T00:53:53;101309.56;;;17.80;65.47
62725;BME280;49026;52.600;4.694;2022-08-04T01:02:19;101307.47;;;17.85;65.52
62725;BME280;49026;52.600;4.694;2022-08-04T01:10:03;101306.63;;;17.85;65.12
62725;BME280;49026;52.600;4.694;2022-08-04T01:15:44;101306.81;;;17.82;65.95
62725;BME280;49026;52.600;4.694;2022-08-04T01:24:29;101306.47;;;17.88;65.79
62725;BME280;49026;52.600;4.694;2022-08-04T01:29:48;101295.34;;;17.81;66.08
62725;BME280;49026;52.600;4.694;2022-08-04T01:34:51;101298.66;;;17.70;66.32
62725;BME280;49026;52.600;4.694;2022-08-04T01:37:42;101296.28;;;17.66;66.43
62725;BME280;49026;52.600;4.694;2022-08-04T01:40:13;101299.16;;;17.63;66.34
62725;BME280;49026;52.600;4.694;2022-08-04T01:42:40;101294.03;;;17.59;66.62
62725;BME280;49026;52.600;4.694;2022-08-04T01:45:08;101292.41;;;17.57;66.65
62725;BME280;49026;52.600;4.694;2022-08-04T01:47:36;101289.75;;;17.57;66.83
62725;BME280;49026;52.600;4.694;2022-08-04T01:50:10;101292.41;;;17.57;66.60
62725;BME280;49026;52.600;4.694;2022-08-04T01:52:40;101288.06;;;17.56;66.70
62725;BME280;49026;52.600;4.694;2022-08-04T01:55:14;101292.59;;;17.54;66.48
62725;BME280;49026;52.600;4.694;2022-08-04T01:57:42;101282.06;;;17.52;66.86
62725;BME280;49026;52.600;4.694;2022-08-04T02:00:09;101290.91;;;17.53;66.74
62725;BME280;49026;52.600;4.694;2022-08-04T02:02:34;101288.16;;;17.54;67.09
62725;BME280;49026;52.600;4.694;2022-08-04T02:05:00;101294.31;;;17.55;67.08
62725;BME280;49026;52.600;4.694;2022-08-04T02:07:39;101282.75;;;17.56;67.27
62725;BME280;49026;52.600;4.694;2022-08-04T02:10:07;101286.16;;;17.58;66.92
62725;BME280;49026;52.600;4.694;2022-08-04T02:12:46;101281.41;;;17.63;67.02
62725;BME280;49026;52.600;4.694;2022-08-04T02:15:35;101293.75;;;17.64;67.25
62725;BME280;49026;52.600;4.694;2022-08-04T02:18:11;101286.72;;;17.63;67.15
62725;BME280;49026;52.600;4.694;2022-08-04T02:20:45;101286.72;;;17.63;67.41
62725;BME280;49026;52.600;4.694;2022-08-04T02:23:43;101282.34;;;17.62;67.28
62725;BME280;49026;52.600;4.694;2022-08-04T02:26:22;101278.09;;;17.59;67.51
62725;BME280;49026;52.600;4.694;2022-08-04T02:29:03;101276.28;;;17.60;67.37
62725;BME280;49026;52.600;4.694;2022-08-04T02:36:47;101275.44;;;17.59;67.72
62725;BME280;49026;52.600;4.694;2022-08-04T02:39:18;101270.78;;;17.63;67.71
62725;BME280;49026;52.600;4.694;2022-08-04T02:41:45;101267.19;;;17.64;67.54
62725;BME280;49026;52.600;4.694;2022-08-04T02:44:16;101276.09;;;17.63;67.43
62725;BME280;49026;52.600;4.694;2022-08-04T02:46:45;101267.19;;;17.64;67.88
62725;BME280;49026;52.600;4.694;2022-08-04T02:49:12;101267.19;;;17.64;67.87
62725;BME280;49026;52.600;4.694;2022-08-04T02:51:44;101257.22;;;17.68;68.21
62725;BME280;49026;52.600;4.694;2022-08-04T02:54:14;101259.25;;;17.77;67.95
62725;BME280;49026;52.600;4.694;2022-08-04T02:56:43;101248.34;;;17.82;67.84
62725;BME280;49026;52.600;4.694;2022-08-04T02:59:11;101250.06;;;17.83;67.91
62725;BME280;49026;52.600;4.694;2022-08-04T03:01:37;101257.25;;;17.81;67.91
62725;BME280;49026;52.600;4.694;2022-08-04T03:04:28;101253.75;;;17.80;68.35
62725;BME280;49026;52.600;4.694;2022-08-04T03:13:24;101239.22;;;17.86;67.88
62725;BME280;49026;52.600;4.694;2022-08-04T03:16:28;101233.72;;;17.89;67.89
62725;BME280;49026;52.600;4.694;2022-08-04T03:31:10;101237.72;;;17.82;68.08
62725;BME280;49026;52.600;4.694;2022-08-04T03:33:53;101232.31;;;17.83;68.08
62725;BME280;49026;52.600;4.694;2022-08-04T03:42:07;101231.28;;;17.71;68.56
62725;BME280;49026;52.600;4.694;2022-08-04T03:45:24;101232.41;;;17.67;68.58
62725;BME280;49026;52.600;4.694;2022-08-04T03:58:51;101230.56;;;17.55;68.85
62725;BME280;49026;52.600;4.694;2022-08-04T04:02:37;101232.47;;;17.53;69.21
62725;BME280;49026;52.600;4.694;2022-08-04T04:10:46;101237.22;;;17.48;69.31
62725;BME280;49026;52.600;4.694;2022-08-04T04:16:02;101240.72;;;17.48;68.73
62725;BME280;49026;52.600;4.694;2022-08-04T04:30:10;101230.66;;;17.53;69.59
62725;BME280;49026;52.600;4.694;2022-08-04T04:33:02;101237.78;;;17.53;69.60
62725;BME280;49026;52.600;4.694;2022-08-04T04:44:13;101241.16;;;17.69;70.15
62725;BME280;49026;52.600;4.694;2022-08-04T04:46:49;101227.47;;;17.75;70.00
62725;BME280;49026;52.600;4.694;2022-08-04T04:49:34;101227.81;;;17.84;70.09
62725;BME280;49026;52.600;4.694;2022-08-04T04:52:25;101231.63;;;17.94;70.41
62725;BME280;49026;52.600;4.694;2022-08-04T04:55:01;101230.38;;;18.00;70.50
62725;BME280;49026;52.600;4.694;2022-08-04T04:57:33;101229.97;;;18.06;70.38
62725;BME280;49026;52.600;4.694;2022-08-04T05:00:02;101224.25;;;18.12;70.62
62725;BME280;49026;52.600;4.694;2022-08-04T05:08:26;101231.75;;;18.32;70.92
62725;BME280;49026;52.600;4.694;2022-08-04T05:11:14;101233.91;;;18.40;71.02
62725;BME280;49026;52.600;4.694;2022-08-04T05:13:51;101242.34;;;18.47;70.99
62725;BME280;49026;52.600;4.694;2022-08-04T05:24:02;101247.94;;;18.69;71.30
62725;BME280;49026;52.600;4.694;2022-08-04T05:26:31;101243.25;;;18.73;71.44
62725;BME280;49026;52.600;4.694;2022-08-04T05:29:06;101245.72;;;18.76;71.71
62725;BME280;49026;52.600;4.694;2022-08-04T05:31:36;101243.78;;;18.78;71.70
62725;BME280;49026;52.600;4.694;2022-08-04T05:34:04;101247.84;;;18.84;71.66
62725;BME280;49026;52.600;4.694;2022-08-04T05:36:49;101249.38;;;18.88;71.63
62725;BME280;49026;52.600;4.694;2022-08-04T05:39:22;101258.13;;;19.03;71.78
62725;BME280;49026;52.600;4.694;2022-08-04T05:41:48;101253.19;;;19.22;71.57
62725;BME280;49026;52.600;4.694;2022-08-04T05:44:16;101264.25;;;19.42;71.52
62725;BME280;49026;52.600;4.694;2022-08-04T05:46:43;101260.50;;;19.57;71.37
62725;BME280;49026;52.600;4.694;2022-08-04T05:49:12;101262.94;;;19.60;71.35
62725;BME280;49026;52.600;4.694;2022-08-04T05:51:39;101263.06;;;19.59;71.58
62725;BME280;49026;52.600;4.694;2022-08-04T05:54:06;101254.44;;;19.55;71.77
62725;BME280;49026;52.600;4.694;2022-08-04T05:56:34;101261.81;;;19.52;71.97
62725;BME280;49026;52.600;4.694;2022-08-04T05:59:02;101257.63;;;19.48;72.22
62725;BME280;49026;52.600;4.694;2022-08-04T06:01:29;101257.00;;;19.44;72.03
62725;BME280;49026;52.600;4.694;2022-08-04T06:03:57;101257.00;;;19.44;72.52
62725;BME280;49026;52.600;4.694;2022-08-04T06:06:26;101256.38;;;19.40;72.53
62725;BME280;49026;52.600;4.694;2022-08-04T06:08:56;101260.88;;;19.40;72.37
62725;BME280;49026;52.600;4.694;2022-08-04T06:11:22;101263.53;;;19.40;72.43
62725;BME280;49026;52.600;4.694;2022-08-04T06:13:56;101263.53;;;19.40;72.63
62725;BME280;49026;52.600;4.694;2022-08-04T06:16:24;101269.69;;;19.40;72.50
62725;BME280;49026;52.600;4.694;2022-08-04T06:18:52;101267.88;;;19.41;72.65
62725;BME280;49026;52.600;4.694;2022-08-04T06:21:23;101266.81;;;19.43;72.69
62725;BME280;49026;52.600;4.694;2022-08-04T06:23:52;101263.84;;;19.48;72.48
62725;BME280;49026;52.600;4.694;2022-08-04T06:26:19;101274.56;;;19.59;72.73
62725;BME280;49026;52.600;4.694;2022-08-04T06:28:47;101267.53;;;19.71;72.69
62725;BME280;49026;52.600;4.694;2022-08-04T06:31:16;101258.44;;;19.87;72.83
62725;BME280;49026;52.600;4.694;2022-08-04T06:34:00;101252.81;;;20.03;72.77
62725;BME280;49026;52.600;4.694;2022-08-04T06:36:26;101251.47;;;20.21;72.76
62725;BME280;49026;52.600;4.694;2022-08-04T06:38:58;101257.47;;;20.36;72.97
62725;BME280;49026;52.600;4.694;2022-08-04T06:41:24;101257.06;;;20.53;72.88
62725;BME280;49026;52.600;4.694;2022-08-04T06:43:50;101261.88;;;20.72;72.97
62725;BME280;49026;52.600;4.694;2022-08-04T06:46:17;101270.69;;;20.97;73.15
62725;BME280;49026;52.600;4.694;2022-08-04T06:48:45;101274.84;;;21.24;73.25
62725;BME280;49026;52.600;4.694;2022-08-04T06:51:12;101286.03;;;21.52;73.25
62725;BME280;49026;52.600;4.694;2022-08-04T06:53:41;101290.78;;;21.71;73.29
62725;BME280;49026;52.600;4.694;2022-08-04T06:56:07;101292.84;;;21.78;72.96
62725;BME280;49026;52.600;4.694;2022-08-04T06:58:34;101294.91;;;21.86;72.86
62725;BME280;49026;52.600;4.694;2022-08-04T07:01:00;101289.19;;;21.91;72.07
62725;BME280;49026;52.600;4.694;2022-08-04T07:03:27;101298.66;;;21.95;72.06
62725;BME280;49026;52.600;4.694;2022-08-04T07:05:53;101305.94;;;22.04;71.39
62725;BME280;49026;52.600;4.694;2022-08-04T07:08:19;101300.56;;;22.15;71.01
62725;BME280;49026;52.600;4.694;2022-08-04T07:10:45;101295.56;;;22.22;69.93
62725;BME280;49026;52.600;4.694;2022-08-04T07:13:11;101295.06;;;22.28;70.19
62725;BME280;49026;52.600;4.694;2022-08-04T07:15:40;101301.22;;;22.40;70.28
62725;BME280;49026;52.600;4.694;2022-08-04T07:18:05;101303.50;;;22.56;69.28
62725;BME280;49026;52.600;4.694;2022-08-04T07:20:39;101302.31;;;22.70;69.14
62725;BME280;49026;52.600;4.694;2022-08-04T07:23:06;101295.81;;;22.84;68.97
62725;BME280;49026;52.600;4.694;2022-08-04T07:25:35;101294.19;;;22.92;68.08
62725;BME280;49026;52.600;4.694;2022-08-04T07:28:03;101294.19;;;22.92;68.70
62725;BME280;49026;52.600;4.694;2022-08-04T07:30:31;101298.47;;;23.05;69.36
62725;BME280;49026;52.600;4.694;2022-08-04T07:32:57;101305.34;;;23.19;68.52
62725;BME280;49026;52.600;4.694;2022-08-04T07:35:23;101311.31;;;23.22;68.83
62725;BME280;49026;52.600;4.694;2022-08-04T07:37:49;101313.25;;;23.20;68.86
62725;BME280;49026;52.600;4.694;2022-08-04T07:40:17;101310.19;;;23.25;69.23
62725;BME280;49026;52.600;4.694;2022-08-04T07:42:43;101306.16;;;23.30;68.71
62725;BME280;49026;52.600;4.694;2022-08-04T07:45:09;101303.78;;;23.37;69.72
62725;BME280;49026;52.600;4.694;2022-08-04T07:47:35;101305.69;;;23.56;70.11
62725;BME280;49026;52.600;4.694;2022-08-04T07:50:01;101311.34;;;23.84;70.23
62725;BME280;49026;52.600;4.694;2022-08-04T07:52:26;101318.72;;;24.11;70.67
62725;BME280;49026;52.600;4.694;2022-08-04T07:54:52;101320.28;;;24.23;69.82
62725;BME280;49026;52.600;4.694;2022-08-04T07:57:21;101317.34;;;24.27;69.08
62725;BME280;49026;52.600;4.694;2022-08-04T07:59:46;101319.59;;;24.21;69.94
62725;BME280;49026;52.600;4.694;2022-08-04T08:02:15;101325.97;;;24.30;69.37
62725;BME280;49026;52.600;4.694;2022-08-04T08:04:43;101323.00;;;24.33;68.67
62725;BME280;49026;52.600;4.694;2022-08-04T08:07:09;101325.13;;;24.30;68.60
62725;BME280;49026;52.600;4.694;2022-08-04T08:09:34;101323.00;;;24.43;68.45
62725;BME280;49026;52.600;4.694;2022-08-04T08:12:00;101320.88;;;24.47;68.13
62725;BME280;49026;52.600;4.694;2022-08-04T08:14:27;101327.38;;;24.34;67.74
62725;BME280;49026;52.600;4.694;2022-08-04T08:16:55;101334.16;;;24.38;66.81
62725;BME280;49026;52.600;4.694;2022-08-04T08:19:22;101330.06;;;24.54;67.00
62725;BME280;49026;52.600;4.694;2022-08-04T08:21:48;101327.00;;;24.68;66.61
62725;BME280;49026;52.600;4.694;2022-08-04T08:24:15;101321.22;;;24.73;66.12
62725;BME280;49026;52.600;4.694;2022-08-04T08:26:43;101332.78;;;24.83;65.84
62725;BME280;49026;52.600;4.694;2022-08-04T08:29:08;101325.00;;;24.90;65.38
62725;BME280;49026;52.600;4.694;2022-08-04T08:31:34;101338.28;;;25.01;65.78
62725;BME280;49026;52.600;4.694;2022-08-04T08:34:00;101331.88;;;25.22;63.75
62725;BME280;49026;52.600;4.694;2022-08-04T08:39:02;101327.47;;;25.30;61.07
62725;BME280;49026;52.600;4.694;2022-08-04T09:06:26;101343.66;;;25.96;59.72
62725;BME280;49026;52.600;4.694;2022-08-04T09:14:39;101346.53;;;25.57;58.15
62725;BME280;49026;52.600;4.694;2022-08-04T09:17:13;101355.50;;;25.75;57.94
62725;BME280;49026;52.600;4.694;2022-08-04T09:19:46;101347.69;;;25.82;57.49
62725;BME280;49026;52.600;4.694;2022-08-04T09:22:18;101355.47;;;25.85;55.67
62725;BME280;49026;52.600;4.694;2022-08-04T09:24:53;101356.81;;;25.71;56.27
62725;BME280;49026;52.600;4.694;2022-08-04T09:32:35;101365.47;;;25.65;55.80
62725;BME280;49026;52.600;4.694;2022-08-04T09:38:22;101363.88;;;25.72;56.77
62725;BME280;49026;52.600;4.694;2022-08-04T09:41:02;101362.47;;;25.78;55.46
62725;BME280;49026;52.600;4.694;2022-08-04T09:43:44;101360.72;;;25.86;55.84
62725;BME280;49026;52.600;4.694;2022-08-04T09:46:21;101359.41;;;25.63;55.70
62725;BME280;49026;52.600;4.694;2022-08-04T09:48:50;101365.69;;;25.34;55.29
62725;BME280;49026;52.600;4.694;2022-08-04T09:51:33;101382.81;;;25.23;55.84
62725;BME280;49026;52.600;4.694;2022-08-04T09:54:06;101378.13;;;25.55;55.91
62725;BME280;49026;52.600;4.694;2022-08-04T09:56:46;101383.50;;;25.82;54.90
62725;BME280;49026;52.600;4.694;2022-08-04T09:59:26;101380.25;;;25.88;55.06
62725;BME280;49026;52.600;4.694;2022-08-04T10:01:57;101380.72;;;25.74;54.13
62725;BME280;49026;52.600;4.694;2022-08-04T10:04:23;101386.84;;;25.66;54.57
62725;BME280;49026;52.600;4.694;2022-08-04T10:09:45;101387.28;;;25.62;54.98
62725;BME280;49026;52.600;4.694;2022-08-04T10:12:25;101393.47;;;25.72;53.99
62725;BME280;49026;52.600;4.694;2022-08-04T10:26:04;101390.56;;;26.03;55.00
62725;BME280;49026;52.600;4.694;2022-08-04T10:28:40;101390.03;;;26.17;53.96
62725;BME280;49026;52.600;4.694;2022-08-04T10:31:09;101391.16;;;26.24;53.11
62725;BME280;49026;52.600;4.694;2022-08-04T10:33:50;101398.22;;;26.25;52.77
62725;BME280;49026;52.600;4.694;2022-08-04T10:36:21;101392.34;;;26.12;52.13
62725;BME280;49026;52.600;4.694;2022-08-04T10:39:07;101402.72;;;26.07;53.34
62725;BME280;49026;52.600;4.694;2022-08-04T10:42:03;101409.34;;;26.13;53.19
62725;BME280;49026;52.600;4.694;2022-08-04T10:47:16;101418.56;;;26.10;53.76
62725;BME280;49026;52.600;4.694;2022-08-04T10:49:53;101412.13;;;26.21;52.62
62725;BME280;49026;52.600;4.694;2022-08-04T10:54:57;101419.22;;;26.22;51.66
62725;BME280;49026;52.600;4.694;2022-08-04T11:00:19;101415.84;;;26.20;52.50
62725;BME280;49026;52.600;4.694;2022-08-04T11:02:54;101411.47;;;26.09;52.83
62725;BME280;49026;52.600;4.694;2022-08-04T11:05:54;101414.94;;;26.01;53.09
62725;BME280;49026;52.600;4.694;2022-08-04T11:08:25;101418.38;;;26.21;52.95
62725;BME280;49026;52.600;4.694;2022-08-04T11:11:00;101433.63;;;26.31;53.36
62725;BME280;49026;52.600;4.694;2022-08-04T11:13:33;101420.72;;;26.52;53.45
62725;BME280;49026;52.600;4.694;2022-08-04T11:16:04;101430.88;;;26.86;54.04
62725;BME280;49026;52.600;4.694;2022-08-04T11:18:48;101423.84;;;27.29;53.59
62725;BME280;49026;52.600;4.694;2022-08-04T11:21:27;101421.13;;;27.47;53.61
62725;BME280;49026;52.600;4.694;2022-08-04T11:24:01;101425.34;;;27.76;53.13
62725;BME280;49026;52.600;4.694;2022-08-04T11:26:48;101436.50;;;28.07;54.09
62725;BME280;49026;52.600;4.694;2022-08-04T11:29:28;101432.16;;;28.23;52.45
62725;BME280;49026;52.600;4.694;2022-08-04T11:31:58;101441.41;;;28.12;52.06
62725;BME280;49026;52.600;4.694;2022-08-04T11:34:27;101438.56;;;28.14;52.09
62725;BME280;49026;52.600;4.694;2022-08-04T11:39:49;101454.09;;;28.20;49.73
62725;BME280;49026;52.600;4.694;2022-08-04T11:42:30;101455.91;;;27.85;48.97
62725;BME280;49026;52.600;4.694;2022-08-04T11:45:02;101456.41;;;27.54;49.26
62725;BME280;49026;52.600;4.694;2022-08-04T11:47:35;101470.66;;;27.64;49.25
62725;BME280;49026;52.600;4.694;2022-08-04T11:50:17;101469.72;;;27.73;47.83
62725;BME280;49026;52.600;4.694;2022-08-04T11:52:47;101461.44;;;28.01;48.90
62725;BME280;49026;52.600;4.694;2022-08-04T11:55:16;101466.19;;;28.42;49.07
62725;BME280;49026;52.600;4.694;2022-08-04T11:57:45;101475.09;;;28.69;49.27
62725;BME280;49026;52.600;4.694;2022-08-04T12:00:12;101477.88;;;28.51;48.62
62725;BME280;49026;52.600;4.694;2022-08-04T12:06:06;101477.44;;;27.68;49.35
62725;BME280;49026;52.600;4.694;2022-08-04T12:16:54;101479.72;;;27.55;48.31
62725;BME280;49026;52.600;4.694;2022-08-04T12:19:29;101479.22;;;27.60;48.25
62725;BME280;49026;52.600;4.694;2022-08-04T12:21:57;101474.19;;;27.65;47.77
62725;BME280;49026;52.600;4.694;2022-08-04T12:24:42;101485.13;;;27.37;47.19
62725;BME280;49026;52.600;4.694;2022-08-04T12:27:22;101494.91;;;27.20;48.33
62725;BME280;49026;52.600;4.694;2022-08-04T12:29:50;101493.69;;;26.96;47.81
62725;BME280;49026;52.600;4.694;2022-08-04T12:35:24;101497.19;;;26.51;47.56
62725;BME280;49026;52.600;4.694;2022-08-04T12:37:57;101490.34;;;26.67;48.11
62725;BME280;49026;52.600;4.694;2022-08-04T12:40:44;101486.88;;;26.92;48.81
62725;BME280;49026;52.600;4.694;2022-08-04T12:43:19;101492.22;;;27.20;48.38
62725;BME280;49026;52.600;4.694;2022-08-04T12:45:50;101496.97;;;27.26;48.53
62725;BME280;49026;52.600;4.694;2022-08-04T12:48:17;101490.88;;;27.60;48.21
62725;BME280;49026;52.600;4.694;2022-08-04T12:50:51;101499.44;;;27.56;47.15
62725;BME280;49026;52.600;4.694;2022-08-04T12:53:19;101496.09;;;27.35;48.36
62725;BME280;49026;52.600;4.694;2022-08-04T12:55:49;101492.75;;;27.24;48.84
62725;BME280;49026;52.600;4.694;2022-08-04T12:58:19;101502.47;;;27.34;49.61
62725;BME280;49026;52.600;4.694;2022-08-04T13:00:53;101505.69;;;27.20;50.05
62725;BME280;49026;52.600;4.694;2022-08-04T13:03:21;101502.22;;;26.92;50.10
62725;BME280;49026;52.600;4.694;2022-08-04T13:05:52;101506.91;;;26.62;50.97
62725;BME280;49026;52.600;4.694;2022-08-04T13:08:21;101499.88;;;26.51;51.31
62725;BME280;49026;52.600;4.694;2022-08-04T13:10:51;101504.69;;;26.30;51.41
62725;BME280;49026;52.600;4.694;2022-08-04T13:13:23;101481.47;;;26.19;52.24
62725;BME280;49026;52.600;4.694;2022-08-04T13:16:01;101497.78;;;26.17;52.19
62725;BME280;49026;52.600;4.694;2022-08-04T13:18:31;101517.06;;;26.13;51.21
62725;BME280;49026;52.600;4.694;2022-08-04T13:21:28;101498.13;;;26.04;51.38
62725;BME280;49026;52.600;4.694;2022-08-04T13:24:08;101509.44;;;26.08;50.83
62725;BME280;49026;52.600;4.694;2022-08-04T13:26:35;101514.53;;;26.11;50.80
62725;BME280;49026;52.600;4.694;2022-08-04T13:29:04;101500.13;;;26.30;49.75
62725;BME280;49026;52.600;4.694;2022-08-04T13:31:30;101516.69;;;26.35;50.31
62725;BME280;49026;52.600;4.694;2022-08-04T13:34:06;101521.53;;;26.59;50.57
62725;BME280;49026;52.600;4.694;2022-08-04T13:36:34;101517.00;;;26.70;50.01
62725;BME280;49026;52.600;4.694;2022-08-04T13:39:20;101517.69;;;26.62;50.68
62725;BME280;49026;52.600;4.694;2022-08-04T13:41:52;101521.38;;;26.61;49.85
62725;BME280;49026;52.600;4.694;2022-08-04T13:44:20;101510.34;;;26.64;50.23
62725;BME280;49026;52.600;4.694;2022-08-04T13:46:51;101517.78;;;26.42;49.95
62725;BME280;49026;52.600;4.694;2022-08-04T13:49:17;101515.13;;;26.33;49.70
62725;BME280;49026;52.600;4.694;2022-08-04T13:51:50;101507.53;;;26.28;49.59
62725;BME280;49026;52.600;4.694;2022-08-04T13:54:18;101513.88;;;26.37;49.59
62725;BME280;49026;52.600;4.694;2022-08-04T13:56:47;101513.28;;;26.43;48.83
62725;BME280;49026;52.600;4.694;2022-08-04T13:59:15;101513.34;;;26.23;49.45
62725;BME280;49026;52.600;4.694;2022-08-04T14:01:42;101508.47;;;26.37;48.77
62725;BME280;49026;52.600;4.694;2022-08-04T14:04:15;101516.13;;;26.41;49.45
62725;BME280;49026;52.600;4.694;2022-08-04T14:06:49;101521.59;;;26.50;49.12
62725;BME280;49026;52.600;4.694;2022-08-04T14:09:20;101510.72;;;26.41;48.91
62725;BME280;49026;52.600;4.694;2022-08-04T14:11:51;101514.94;;;26.44;48.67
62725;BME280;49026;52.600;4.694;2022-08-04T14:17:07;101525.31;;;26.11;48.01
62725;BME280;49026;52.600;4.694;2022-08-04T14:27:24;101523.63;;;26.38;48.43
62725;BME280;49026;52.600;4.694;2022-08-04T14:29:50;101531.06;;;26.64;48.27
62725;BME280;49026;52.600;4.694;2022-08-04T14:32:18;101534.00;;;26.70;48.11
62725;BME280;49026;52.600;4.694;2022-08-04T14:34:44;101522.69;;;26.67;47.75
62725;BME280;49026;52.600;4.694;2022-08-04T14:37:11;101527.06;;;26.68;48.41
62725;BME280;49026;52.600;4.694;2022-08-04T14:39:42;101517.53;;;26.91;48.19
62725;BME280;49026;52.600;4.694;2022-08-04T14:42:08;101525.56;;;26.83;48.69
62725;BME280;49026;52.600;4.694;2022-08-04T14:44:53;101520.19;;;26.83;48.11
62725;BME280;49026;52.600;4.694;2022-08-04T14:47:37;101522.94;;;26.91;47.44
62725;BME280;49026;52.600;4.694;2022-08-04T14:50:06;101529.59;;;26.69;47.03
62725;BME280;49026;52.600;4.694;2022-08-04T14:52:32;101521.97;;;27.10;47.52
62725;BME280;49026;52.600;4.694;2022-08-04T14:54:57;101528.00;;;27.40;45.82
62725;BME280;49026;52.600;4.694;2022-08-04T14:57:23;101522.38;;;27.33;46.17
62725;BME280;49026;52.600;4.694;2022-08-04T14:59:49;101519.72;;;27.06;45.33
62725;BME280;49026;52.600;4.694;2022-08-04T15:02:17;101521.31;;;26.80;45.49
62725;BME280;49026;52.600;4.694;2022-08-04T15:04:44;101526.16;;;26.77;45.38
62725;BME280;49026;52.600;4.694;2022-08-04T15:07:10;101524.41;;;26.86;45.66
62725;BME280;49026;52.600;4.694;2022-08-04T15:09:36;101528.25;;;27.01;45.87
62725;BME280;49026;52.600;4.694;2022-08-04T15:12:03;101520.56;;;27.24;44.70
62725;BME280;49026;52.600;4.694;2022-08-04T15:14:28;101537.19;;;26.84;44.30
62725;BME280;49026;52.600;4.694;2022-08-04T15:16:54;101525.84;;;26.24;45.54
62725;BME280;49026;52.600;4.694;2022-08-04T15:19:19;101530.97;;;26.18;46.29
62725;BME280;49026;52.600;4.694;2022-08-04T15:21:48;101534.38;;;25.91;46.54
62725;BME280;49026;52.600;4.694;2022-08-04T15:24:13;101538.81;;;25.72;46.90
62725;BME280;49026;52.600;4.694;2022-08-04T15:26:47;101542.13;;;25.56;47.92
62725;BME280;49026;52.600;4.694;2022-08-04T15:32:05;101537.69;;;25.16;48.83
62725;BME280;49026;52.600;4.694;2022-08-04T15:34:48;101532.63;;;24.63;49.43
62725;BME280;49026;52.600;4.694;2022-08-04T15:45:56;101538.69;;;23.82;51.07
62725;BME280;49026;52.600;4.694;2022-08-04T15:48:27;101533.69;;;23.56;51.14
62725;BME280;49026;52.600;4.694;2022-08-04T15:55:54;101542.91;;;22.87;52.71
62725;BME280;49026;52.600;4.694;2022-08-04T15:58:21;101548.28;;;22.87;52.95
62725;BME280;49026;52.600;4.694;2022-08-04T16:14:09;101553.81;;;23.18;53.16
62725;BME280;49026;52.600;4.694;2022-08-04T16:19:07;101549.44;;;23.17;52.74
62725;BME280;49026;52.600;4.694;2022-08-04T16:21:48;101554.75;;;23.28;52.60
62725;BME280;49026;52.600;4.694;2022-08-04T16:24:36;101568.56;;;23.24;52.97
62725;BME280;49026;52.600;4.694;2022-08-04T16:27:06;101565.19;;;23.43;52.63
62725;BME280;49026;52.600;4.694;2022-08-04T16:34:32;101563.44;;;24.07;51.37
62725;BME280;49026;52.600;4.694;2022-08-04T16:37:01;101561.63;;;23.86;52.06
62725;BME280;49026;52.600;4.694;2022-08-04T16:39:27;101563.72;;;23.71;52.23
62725;BME280;49026;52.600;4.694;2022-08-04T16:41:53;101566.84;;;23.55;52.36
62725;BME280;49026;52.600;4.694;2022-08-04T16:44:35;101569.94;;;22.96;53.11
62725;BME280;49026;52.600;4.694;2022-08-04T16:47:04;101568.97;;;22.51;54.04
62725;BME280;49026;52.600;4.694;2022-08-04T16:49:31;101570.28;;;22.23;54.34
62725;BME280;49026;52.600;4.694;2022-08-04T16:52:05;101572.53;;;22.05;54.56
62725;BME280;49026;52.600;4.694;2022-08-04T16:54:35;101572.81;;;22.02;54.65
62725;BME280;49026;52.600;4.694;2022-08-04T16:57:09;101571.41;;;21.85;54.42
62725;BME280;49026;52.600;4.694;2022-08-04T16:59:38;101571.72;;;21.69;54.68
62725;BME280;49026;52.600;4.694;2022-08-04T17:02:04;101587.22;;;21.53;54.90
62725;BME280;49026;52.600;4.694;2022-08-04T17:04:34;101573.47;;;21.33;54.82
62725;BME280;49026;52.600;4.694;2022-08-04T17:07:01;101574.09;;;21.13;55.41
62725;BME280;49026;52.600;4.694;2022-08-04T17:09:28;101575.31;;;21.08;55.51
62725;BME280;49026;52.600;4.694;2022-08-04T17:11:53;101575.19;;;21.10;54.83
62725;BME280;49026;52.600;4.694;2022-08-04T17:14:28;101574.41;;;21.21;55.38
62725;BME280;49026;52.600;4.694;2022-08-04T17:16:57;101570.88;;;21.20;55.00
62725;BME280;49026;52.600;4.694;2022-08-04T17:19:23;101564.66;;;21.20;55.15
62725;BME280;49026;52.600;4.694;2022-08-04T17:21:49;101565.31;;;21.23;54.90
62725;BME280;49026;52.600;4.694;2022-08-04T17:24:15;101570.03;;;21.44;54.42
62725;BME280;49026;52.600;4.694;2022-08-04T17:26:41;101571.66;;;22.29;52.72